Sprint Open Béziers (34) - C2

Date : 30/10/2021
Distance : 2,400 km
Valeur du circuit : 4533184 point × seconde

Place Nom Licence Catégorie Club Temps min/km CN à J-15 Valeur Points Différence Nouveau CN
1 CHATELON Lucile 1557 D40 4203AR 0:13:24 5'35 6977 5609508 5638 -1339 7306
2 RIOLLET Marion 21281 D20 6911AR 0:14:34 6'04 5078 4438172 5187 +109 5202
3 TIRBOIS Madeleine 15917 D40 7719IF 0:14:43 6'07 5697 5030451 5134 -563 5709
4 PAULY Marianne 21040 D40 1705NA 0:15:07 6'17 5545 5029315 4998 -547 5591
5 MAIRE Chloe 28341 D20 5703GE 0:15:07 6'17 5357 4858799 4998 -359 5360
6 SANCHEZ Marlène 15247 D40 6208HF 0:16:03 6'41 4993 4808259 4707 -286 4954
7 KONIECZNY Vanessa 16044 D40 7309AR 0:16:15 6'46 4778 4658550 4649 -129 4757
8 TAURISSON Claire 37723 D40 7404AR 0:16:28 6'51 3939 3891732 4588 +649 4116
9 CHAMP Florine 31672 D20 3319NA 0:16:32 6'53 3718 3688256 4570 +852 4047
10 FORESTIER Charlotte 33438 D40 2517BF 0:16:45 6'58 4575 4597875 4511 -64 4842
11 MANCINA Céline 31241 D40 0705AR 0:17:18 7'12 4367 0
12 TALON Anaëlle 32100 D20 8607NA 0:17:39 7'21 4408 4668072 4281 -127 4408
13 FAUVET Chrystelle 13430 D40 6008HF 0:17:46 7'24 4254 4534764 4253 -1 4179
14 PIVOT Claire 36724 D40 3812AR 0:17:50 7'25 4361 4666270 4237 -124 4481
15 DECARPIGNY Gwladys 6995 D40 5907HF 0:18:17 7'37 4217 4626049 4132 +84 4104
16 BERTOUT Olivia 36156 D40 5906HF 0:18:29 7'42 3393 3762837 4088 +763 3500
17 CHAPILLON Aurelie 22674 D45 0615PZ 0:18:49 7'50 4018 4536322 4015 -3 4065
18 LEMIEGRE Virginie 39839 D40 1408NM 0:19:08 7'58 3642 4181016 3949 +307 3773
19 MACHEBOEUF ALINE 30588 D40 6307AR 0:19:13 8'00 4037 4654661 3932 -105 4082
20 POINSOTTE Fanny 25125 D40 3810AR 0:19:42 8'12 3937 4653534 3835 -102 3969
21 JULES Aurore 32522 D20 6604OC 0:19:42 8'12 3304 3905328 3835 +663 3341
22 NIGGLI Daria 21017 D40 3913BF 0:19:49 8'15 4297 5109133 3813 -484 4550
23 ARNOUX Anne 37083 D40 8807GE 0:20:03 8'21 2389 2873967 3768 +1379 2686
24 PECHSTEIN Alice 9619 D40 5402GE 0:20:06 8'22 3751 4523706 3759 +8 3782
25 LESIGNE Agathe 35073 D40 1303PZ 0:20:15 8'26 3774 4585410 3731 -43 3871
26 LAROSE Marlene 25048 D40 3810AR 0:20:15 8'26 3732 4534380 3731 -1 3910
27 GARCIA Marie Line 16791 D40 0705AR 0:20:33 8'33 4871 6005943 3677 -1194 4871
28 CHEVALIER Caroline 24293 D40 8702NA 0:20:35 8'34 4262 5263570 3671 -591 4231
29 VILLEDIEU Florence 20797 D40 1403NM 0:20:39 8'36 3869 4793691 3659 -210 3869
30 NOBLE Sandrine 17634 D40 1905NA 0:20:40 8'36 4153 5149720 3656 -497 4111
31 FRANCOIS Marie 40109 D40 1408NM 0:20:43 8'37 0 3647 2298
32 BERTHOLOM Morgane 32505 D40 2904BR 0:21:27 8'56 3505 4510935 3522 +17 3615
33 MASSIAS Sophie 26035 D40 1905NA 0:21:29 8'57 3909 5038701 3517 -392 3835
34 HERVE Manon 30599 D20 3318NA 0:21:40 9'01 3651 4746300 3487 -164 3775
35 LE GUEN Marlène 39312 D40 2904BR 0:22:10 9'14 1248 1659840 3408 +2185 2298
36 DECHAVANNE Nathalie 13284 D40 6911AR 0:22:28 9'21 2650 3363 +713 2848
37 EININGER Céline 26071 D40 0615PZ 0:22:36 9'25 2687 3343 +656 2974
38 NAUDINOT Nolwen 41072 D40 5803BF 0:22:52 9'31 3304 2159
39 LE BIAVANT Laétitia 35626 D40 4705NA 0:23:08 9'38 2787 3266 +479 2965
40 COURTOIS Mélanie 36932 D40 3319NA 0:23:14 9'40 2841 3252 +411 2943
41 DEVILLE Stéphanie 27644 D40 3810AR 0:24:15 10'06 4481 3116 -1365 4455
42 LETERME Elise 40284 D40 7311AR 0:24:29 10'12 1397 3086 +1689 1722
43 ECHILLEY Anne-Laure 30919 D40 7004BF 0:25:07 10'27 3033 3008 -25 3109
44 SAVOIRE Raphaëlle 30455 D40 3308NA 0:25:15 10'31 3211 2992 -219 3291
45 DUBROCA Christele 632 D40 3308NA 0:26:18 10'57 4671 2873 -1798 4671
46 HAGARD Virginie 7048 D40 5907HF 0:26:20 10'58 2368 2869 +501 2595
47 SOLBES Corine 30173 D40 1705NA 0:27:07 11'17 3838 2786 -1052 3806
48 DOMBROVSKY Florence 25178 D40 3308NA 0:27:40 11'31 3274 2731 -543 3200
49 CYFFERS Morgane 39145 D40 5906HF 0:27:52 11'36 0 2711 926
50 ASTOUL Sandrine 16801 D40 6911AR 0:28:08 11'43 2657 2686 +29 2664
51 BARRERE Nathalie 28365 D40 8105OC 0:32:15 13'26 3236 2343 -893 3236
52 SCHOULLER Coralie 13242 D40 5703GE 0:32:36 13'35 3731 2318 -1413 3703
53 DIOT Sandrine 40661 D40 8607NA 0:33:56 14'08 0 2227 1250
54 DEWILDE Lydie 40654 D40 5907HF 0:36:42 15'17 0 2059 1123
55 LAGENEBRE Jenny 40830 D40 4012NA 0:38:49 16'10 3036 1946 -1090 3274
MADRANGES Héléne 30598 D40 3318NA pm None 3760 0 3740
TOURE-FORT Myriam 40833 D40 1209OC pm None 0 0 0